VPE9313 LICR-LIML
Flight info
| Callsign | VPE9313 |
|---|---|
| Flight time | 1h 41m |
| Altitude | 40000 |
| Route | PAZZE L869 PIGER/N0428F400 DCT DIRED DCT PNZ DCT TORLI DCT GILIO DCT KARDU DCT EMBOS DCT GIPIX DCT KALMO |
| Aircraft | LJ35/M-SGHRWXY/SB1 |
Departure
| Time | 2026-04-30 12:49 |
|---|---|
| Airport | Reggio Calabria Airport (LICR) |
Arrival
| Time | 2026-04-30 14:30 |
|---|---|
| Airport | Milano Linate Airport (LIML) |
| Time | Latitude | Longitude | Altitude | Speed | Heading |
|---|---|---|---|---|---|
| 2026-04-30 12:24 | 38.07377 | 15.65167 | 44 ft | 0 kts | 61° |
| 2026-04-30 12:42 | 38.07377 | 15.65171 | 44 ft | 0 kts | 90° |
| 2026-04-30 12:42 | 38.07374 | 15.65177 | 44 ft | 1 kts | 156° |
| 2026-04-30 12:43 | 38.07367 | 15.65173 | 44 ft | 1 kts | 244° |
| 2026-04-30 12:43 | 38.07365 | 15.65146 | 44 ft | 5 kts | 280° |
| 2026-04-30 12:43 | 38.07409 | 15.65105 | 44 ft | 11 kts | 330° |
| 2026-04-30 12:43 | 38.07398 | 15.65031 | 46 ft | 10 kts | 242° |
| 2026-04-30 12:44 | 38.07323 | 15.65027 | 44 ft | 17 kts | 153° |
| 2026-04-30 12:44 | 38.07245 | 15.65078 | 41 ft | 22 kts | 154° |
| 2026-04-30 12:44 | 38.07115 | 15.65181 | 36 ft | 21 kts | 123° |
| 2026-04-30 12:44 | 38.07046 | 15.65375 | 32 ft | 27 kts | 113° |
| 2026-04-30 12:45 | 38.06954 | 15.65658 | 29 ft | 15 kts | 106° |
| 2026-04-30 12:45 | 38.06938 | 15.65727 | 28 ft | 8 kts | 184° |
| 2026-04-30 12:45 | 38.06938 | 15.65703 | 28 ft | 0 kts | 292° |
| 2026-04-30 12:48 | 38.06980 | 15.65579 | 30 ft | 52 kts | 292° |
| 2026-04-30 12:48 | 38.07260 | 15.64728 | 98 ft | 150 kts | 291° |
| 2026-04-30 12:49 | 38.07771 | 15.63303 | 795 ft | 199 kts | 294° |
| 2026-04-30 12:49 | 38.08390 | 15.61588 | 1966 ft | 228 kts | 297° |
| 2026-04-30 12:49 | 38.09158 | 15.59691 | 3168 ft | 252 kts | 302° |
| 2026-04-30 12:49 | 38.10429 | 15.58142 | 4435 ft | 253 kts | 333° |
| 2026-04-30 12:50 | 38.12115 | 15.57827 | 5242 ft | 248 kts | 9° |
| 2026-04-30 12:50 | 38.13622 | 15.58720 | 6029 ft | 232 kts | 28° |
| 2026-04-30 12:50 | 38.15049 | 15.59627 | 6731 ft | 229 kts | 19° |
| 2026-04-30 12:50 | 38.16592 | 15.60138 | 7337 ft | 231 kts | 5° |
| 2026-04-30 12:51 | 38.18197 | 15.60254 | 8020 ft | 229 kts | 354° |
| 2026-04-30 12:51 | 38.19778 | 15.60108 | 8705 ft | 228 kts | 350° |
| 2026-04-30 12:51 | 38.21360 | 15.59894 | 9346 ft | 230 kts | 349° |
| 2026-04-30 12:51 | 38.22960 | 15.59671 | 9969 ft | 232 kts | 349° |
| 2026-04-30 12:52 | 38.24552 | 15.59446 | 10533 ft | 233 kts | 346° |
| 2026-04-30 12:52 | 38.26146 | 15.59075 | 11112 ft | 233 kts | 344° |
| 2026-04-30 12:52 | 38.27745 | 15.58699 | 11691 ft | 235 kts | 346° |
| 2026-04-30 12:52 | 38.29363 | 15.58369 | 12257 ft | 236 kts | 344° |
| 2026-04-30 12:53 | 38.30985 | 15.57992 | 12834 ft | 238 kts | 345° |
| 2026-04-30 12:53 | 38.32622 | 15.57647 | 13432 ft | 238 kts | 346° |
| 2026-04-30 12:53 | 38.34268 | 15.57331 | 14063 ft | 244 kts | 346° |
| 2026-04-30 12:53 | 38.36027 | 15.56960 | 14584 ft | 268 kts | 345° |
| 2026-04-30 12:54 | 38.37915 | 15.56502 | 15395 ft | 280 kts | 346° |
| 2026-04-30 12:54 | 38.39887 | 15.56061 | 16113 ft | 300 kts | 347° |
| 2026-04-30 12:54 | 38.42071 | 15.55638 | 16349 ft | 331 kts | 348° |
| 2026-04-30 12:54 | 38.44290 | 15.55221 | 17657 ft | 315 kts | 348° |
| 2026-04-30 12:55 | 38.46456 | 15.54745 | 18297 ft | 314 kts | 346° |
| 2026-04-30 12:55 | 38.48605 | 15.54206 | 18833 ft | 315 kts | 345° |
| 2026-04-30 12:55 | 38.50769 | 15.53682 | 19344 ft | 317 kts | 346° |
| 2026-04-30 12:55 | 38.52918 | 15.53044 | 19837 ft | 316 kts | 336° |
| 2026-04-30 12:56 | 38.54735 | 15.51526 | 20342 ft | 313 kts | 313° |
| 2026-04-30 12:56 | 38.55897 | 15.49203 | 20823 ft | 314 kts | 291° |
| 2026-04-30 12:56 | 38.56223 | 15.46444 | 21288 ft | 319 kts | 269° |
| 2026-04-30 12:56 | 38.55978 | 15.43610 | 21760 ft | 322 kts | 269° |
| 2026-04-30 12:57 | 38.56304 | 15.40812 | 22209 ft | 320 kts | 291° |
| 2026-04-30 12:57 | 38.57485 | 15.38419 | 22662 ft | 322 kts | 313° |
| 2026-04-30 12:57 | 38.59228 | 15.36605 | 23130 ft | 325 kts | 322° |
| 2026-04-30 12:57 | 38.61098 | 15.34965 | 23587 ft | 327 kts | 324° |
| 2026-04-30 12:58 | 38.63007 | 15.33368 | 23975 ft | 329 kts | 325° |
| 2026-04-30 12:58 | 38.64910 | 15.31789 | 24355 ft | 330 kts | 325° |
| 2026-04-30 12:58 | 38.66836 | 15.30177 | 24733 ft | 332 kts | 325° |
| 2026-04-30 12:58 | 38.68766 | 15.28545 | 25102 ft | 333 kts | 324° |
| 2026-04-30 12:59 | 38.70697 | 15.26896 | 25504 ft | 334 kts | 324° |
| 2026-04-30 12:59 | 38.72629 | 15.25236 | 25877 ft | 335 kts | 324° |
| 2026-04-30 12:59 | 38.74568 | 15.23561 | 26244 ft | 337 kts | 324° |
| 2026-04-30 12:59 | 38.76517 | 15.21873 | 26611 ft | 338 kts | 324° |
| 2026-04-30 13:00 | 38.78473 | 15.20176 | 26989 ft | 339 kts | 323° |
| 2026-04-30 13:00 | 38.80428 | 15.18469 | 27362 ft | 341 kts | 324° |
| 2026-04-30 13:00 | 38.82397 | 15.16758 | 27734 ft | 343 kts | 323° |
| 2026-04-30 13:00 | 38.84378 | 15.15038 | 28082 ft | 345 kts | 323° |
| 2026-04-30 13:01 | 38.86368 | 15.13307 | 28422 ft | 346 kts | 323° |
| 2026-04-30 13:01 | 38.88367 | 15.11568 | 28756 ft | 348 kts | 323° |
| 2026-04-30 13:01 | 38.90378 | 15.09815 | 29083 ft | 350 kts | 323° |
| 2026-04-30 13:01 | 38.92395 | 15.08057 | 29400 ft | 351 kts | 323° |
| 2026-04-30 13:02 | 38.94423 | 15.06287 | 29711 ft | 353 kts | 323° |
| 2026-04-30 13:02 | 38.96433 | 15.04533 | 30006 ft | 354 kts | 323° |
| 2026-04-30 13:02 | 38.98476 | 15.02746 | 30274 ft | 356 kts | 323° |
| 2026-04-30 13:02 | 39.00529 | 15.00951 | 30530 ft | 357 kts | 323° |
| 2026-04-30 13:03 | 39.02585 | 14.99152 | 30782 ft | 357 kts | 323° |
| 2026-04-30 13:03 | 39.04648 | 14.97345 | 31029 ft | 358 kts | 323° |
| 2026-04-30 13:03 | 39.06712 | 14.95536 | 31278 ft | 359 kts | 323° |
| 2026-04-30 13:03 | 39.08777 | 14.93726 | 31507 ft | 360 kts | 323° |
| 2026-04-30 13:04 | 39.10848 | 14.91907 | 31762 ft | 360 kts | 323° |
| 2026-04-30 13:04 | 39.12912 | 14.90094 | 32035 ft | 359 kts | 323° |
| 2026-04-30 13:04 | 39.14947 | 14.88306 | 32245 ft | 359 kts | 323° |
| 2026-04-30 13:04 | 39.17011 | 14.86489 | 32449 ft | 360 kts | 323° |
| 2026-04-30 13:05 | 39.19079 | 14.84668 | 32655 ft | 360 kts | 323° |
| 2026-04-30 13:05 | 39.21152 | 14.82840 | 32849 ft | 361 kts | 323° |
| 2026-04-30 13:05 | 39.23229 | 14.81010 | 33098 ft | 362 kts | 322° |
| 2026-04-30 13:06 | 39.27400 | 14.77325 | 34159 ft | 365 kts | 322° |
| 2026-04-30 13:06 | 39.29500 | 14.75469 | 34566 ft | 367 kts | 322° |
| 2026-04-30 13:06 | 39.31616 | 14.73598 | 35012 ft | 370 kts | 322° |
| 2026-04-30 13:06 | 39.33755 | 14.71708 | 35465 ft | 374 kts | 322° |
| 2026-04-30 13:07 | 39.35911 | 14.69800 | 35952 ft | 377 kts | 322° |
| 2026-04-30 13:07 | 39.38092 | 14.67868 | 36410 ft | 381 kts | 322° |
| 2026-04-30 13:07 | 39.40291 | 14.65919 | 36862 ft | 385 kts | 322° |
| 2026-04-30 13:07 | 39.42510 | 14.63949 | 37286 ft | 389 kts | 322° |
| 2026-04-30 13:08 | 39.44722 | 14.61984 | 37679 ft | 392 kts | 322° |
| 2026-04-30 13:08 | 39.46981 | 14.59976 | 38037 ft | 395 kts | 322° |
| 2026-04-30 13:08 | 39.49231 | 14.57977 | 38716 ft | 390 kts | 322° |
| 2026-04-30 13:08 | 39.51467 | 14.55989 | 39122 ft | 390 kts | 322° |
| 2026-04-30 13:09 | 39.53709 | 14.53988 | 39480 ft | 391 kts | 322° |
| 2026-04-30 13:09 | 39.55909 | 14.51900 | 39829 ft | 392 kts | 319° |
| 2026-04-30 13:09 | 39.58049 | 14.49675 | 40013 ft | 396 kts | 317° |
| 2026-04-30 13:10 | 39.62242 | 14.44955 | 40065 ft | 399 kts | 316° |
| 2026-04-30 13:10 | 39.66378 | 14.40325 | 40077 ft | 391 kts | 316° |
| 2026-04-30 13:11 | 39.70460 | 14.35730 | 40081 ft | 384 kts | 316° |
| 2026-04-30 13:11 | 39.74460 | 14.31206 | 40078 ft | 379 kts | 316° |
| 2026-04-30 13:12 | 39.78433 | 14.26695 | 40082 ft | 384 kts | 316° |
| 2026-04-30 13:12 | 39.82504 | 14.22063 | 40090 ft | 393 kts | 316° |
| 2026-04-30 13:13 | 39.88631 | 14.15092 | 40092 ft | 388 kts | 316° |
| 2026-04-30 13:14 | 39.94704 | 14.08165 | 40090 ft | 385 kts | 316° |
| 2026-04-30 13:14 | 40.00733 | 14.01269 | 40092 ft | 382 kts | 316° |
| 2026-04-30 13:15 | 40.06688 | 13.94440 | 40106 ft | 381 kts | 316° |
| 2026-04-30 13:16 | 40.10658 | 13.89878 | 40099 ft | 380 kts | 316° |
| 2026-04-30 13:16 | 40.14622 | 13.85315 | 40093 ft | 379 kts | 316° |
| 2026-04-30 13:17 | 40.20549 | 13.78479 | 40097 ft | 378 kts | 316° |
| 2026-04-30 13:18 | 40.26460 | 13.71647 | 40098 ft | 377 kts | 316° |
| 2026-04-30 13:18 | 40.32357 | 13.64812 | 40113 ft | 377 kts | 316° |
| 2026-04-30 13:19 | 40.36265 | 13.60275 | 40105 ft | 377 kts | 315° |
| 2026-04-30 13:19 | 40.40194 | 13.55705 | 40104 ft | 377 kts | 315° |
| 2026-04-30 13:20 | 40.44123 | 13.51128 | 40103 ft | 377 kts | 315° |
| 2026-04-30 13:20 | 40.48017 | 13.46584 | 40104 ft | 377 kts | 315° |
| 2026-04-30 13:21 | 40.51941 | 13.41995 | 40109 ft | 380 kts | 315° |
| 2026-04-30 13:22 | 40.57900 | 13.35011 | 40121 ft | 385 kts | 315° |
| 2026-04-30 13:22 | 40.63928 | 13.27933 | 40115 ft | 389 kts | 315° |
| 2026-04-30 13:23 | 40.69990 | 13.20798 | 40114 ft | 390 kts | 315° |
| 2026-04-30 13:24 | 40.78094 | 13.11235 | 40107 ft | 389 kts | 315° |
| 2026-04-30 13:25 | 40.86092 | 13.01765 | 40119 ft | 386 kts | 315° |
| 2026-04-30 13:26 | 40.95823 | 12.89671 | 40118 ft | 382 kts | 311° |
| 2026-04-30 13:28 | 41.04995 | 12.77036 | 40098 ft | 380 kts | 312° |
| 2026-04-30 13:28 | 41.10501 | 12.69537 | 40120 ft | 379 kts | 312° |
| 2026-04-30 13:29 | 41.17865 | 12.59494 | 40115 ft | 379 kts | 312° |
| 2026-04-30 13:31 | 41.26430 | 12.47770 | 40117 ft | 379 kts | 311° |
| 2026-04-30 13:32 | 41.35607 | 12.35156 | 40112 ft | 380 kts | 311° |
| 2026-04-30 13:33 | 41.42948 | 12.25027 | 40105 ft | 380 kts | 311° |
| 2026-04-30 13:34 | 41.48451 | 12.17410 | 40105 ft | 380 kts | 311° |
| 2026-04-30 13:35 | 41.55764 | 12.07258 | 40106 ft | 380 kts | 311° |
| 2026-04-30 13:36 | 41.63096 | 11.97046 | 40114 ft | 381 kts | 311° |
| 2026-04-30 13:36 | 41.68597 | 11.89367 | 40127 ft | 381 kts | 311° |
| 2026-04-30 13:37 | 41.74074 | 11.81700 | 40130 ft | 381 kts | 311° |
| 2026-04-30 13:38 | 41.79568 | 11.73988 | 40118 ft | 381 kts | 311° |
| 2026-04-30 13:39 | 41.86886 | 11.63684 | 40096 ft | 382 kts | 311° |
| 2026-04-30 13:40 | 41.92382 | 11.55923 | 40106 ft | 382 kts | 311° |
| 2026-04-30 13:40 | 41.96041 | 11.50744 | 40106 ft | 382 kts | 311° |
| 2026-04-30 13:41 | 41.99676 | 11.45589 | 40115 ft | 382 kts | 311° |
| 2026-04-30 13:41 | 42.03336 | 11.40389 | 40115 ft | 382 kts | 311° |
| 2026-04-30 13:42 | 42.06996 | 11.35180 | 40122 ft | 383 kts | 311° |
| 2026-04-30 13:42 | 42.12484 | 11.27352 | 40115 ft | 383 kts | 311° |
| 2026-04-30 13:43 | 42.16138 | 11.22128 | 40121 ft | 383 kts | 311° |
| 2026-04-30 13:43 | 42.19793 | 11.16894 | 40122 ft | 383 kts | 311° |
| 2026-04-30 13:44 | 42.23425 | 11.11683 | 40121 ft | 384 kts | 311° |
| 2026-04-30 13:44 | 42.27083 | 11.06426 | 40126 ft | 384 kts | 311° |
| 2026-04-30 13:45 | 42.32568 | 10.98523 | 40124 ft | 384 kts | 311° |
| 2026-04-30 13:46 | 42.36378 | 10.93445 | 40129 ft | 387 kts | 319° |
| 2026-04-30 13:46 | 42.41032 | 10.89702 | 40130 ft | 392 kts | 330° |
| 2026-04-30 13:47 | 42.45891 | 10.86454 | 40126 ft | 392 kts | 329° |
| 2026-04-30 13:47 | 42.50768 | 10.83152 | 40137 ft | 392 kts | 329° |
| 2026-04-30 13:48 | 42.55652 | 10.79848 | 40132 ft | 392 kts | 329° |
| 2026-04-30 13:48 | 42.60541 | 10.76545 | 40132 ft | 392 kts | 329° |
| 2026-04-30 13:49 | 42.65428 | 10.73239 | 40131 ft | 392 kts | 329° |
| 2026-04-30 13:49 | 42.70314 | 10.69929 | 40134 ft | 392 kts | 329° |
| 2026-04-30 13:50 | 42.75199 | 10.66612 | 40143 ft | 392 kts | 330° |
| 2026-04-30 13:50 | 42.82490 | 10.61654 | 40136 ft | 392 kts | 330° |
| 2026-04-30 13:51 | 42.87373 | 10.58325 | 40137 ft | 392 kts | 330° |
| 2026-04-30 13:51 | 42.92254 | 10.54992 | 40141 ft | 392 kts | 330° |
| 2026-04-30 13:52 | 42.97192 | 10.51813 | 40147 ft | 394 kts | 335° |
| 2026-04-30 13:52 | 43.02528 | 10.49893 | 40147 ft | 399 kts | 345° |
| 2026-04-30 13:53 | 43.07989 | 10.48470 | 40144 ft | 399 kts | 345° |
| 2026-04-30 13:53 | 43.13464 | 10.47021 | 40154 ft | 391 kts | 345° |
| 2026-04-30 13:54 | 43.16037 | 10.46347 | 40159 ft | 374 kts | 345° |
| 2026-04-30 13:54 | 43.18532 | 10.45693 | 40144 ft | 358 kts | 345° |
| 2026-04-30 13:54 | 43.20908 | 10.45071 | 40137 ft | 344 kts | 345° |
| 2026-04-30 13:54 | 43.23217 | 10.44464 | 40129 ft | 331 kts | 345° |
| 2026-04-30 13:55 | 43.25439 | 10.43877 | 40124 ft | 319 kts | 344° |
| 2026-04-30 13:55 | 43.27590 | 10.43308 | 40122 ft | 313 kts | 344° |
| 2026-04-30 13:55 | 43.29758 | 10.42725 | 40130 ft | 325 kts | 344° |
| 2026-04-30 13:55 | 43.32034 | 10.42105 | 40148 ft | 342 kts | 344° |
| 2026-04-30 13:56 | 43.34427 | 10.41455 | 40202 ft | 356 kts | 345° |
| 2026-04-30 13:56 | 43.36803 | 10.40826 | 40208 ft | 344 kts | 345° |
| 2026-04-30 13:56 | 43.39172 | 10.40200 | 39560 ft | 346 kts | 345° |
| 2026-04-30 13:56 | 43.41517 | 10.39580 | 38984 ft | 340 kts | 345° |
| 2026-04-30 13:57 | 43.43822 | 10.38972 | 38345 ft | 334 kts | 345° |
| 2026-04-30 13:57 | 43.46088 | 10.38374 | 37673 ft | 329 kts | 344° |
| 2026-04-30 13:57 | 43.48316 | 10.37784 | 37013 ft | 324 kts | 343° |
| 2026-04-30 13:57 | 43.50514 | 10.37200 | 36383 ft | 319 kts | 343° |
| 2026-04-30 13:58 | 43.52674 | 10.36624 | 35779 ft | 314 kts | 342° |
| 2026-04-30 13:58 | 43.56878 | 10.35502 | 34629 ft | 305 kts | 342° |
| 2026-04-30 13:58 | 43.58945 | 10.34949 | 34052 ft | 300 kts | 342° |
| 2026-04-30 13:59 | 43.60979 | 10.34405 | 33391 ft | 296 kts | 341° |
| 2026-04-30 13:59 | 43.62989 | 10.33867 | 32761 ft | 292 kts | 341° |
| 2026-04-30 13:59 | 43.64968 | 10.33336 | 32145 ft | 287 kts | 341° |
| 2026-04-30 13:59 | 43.66921 | 10.32813 | 31546 ft | 284 kts | 341° |
| 2026-04-30 14:00 | 43.68842 | 10.32296 | 30964 ft | 280 kts | 341° |
| 2026-04-30 14:00 | 43.72618 | 10.31280 | 29750 ft | 273 kts | 341° |
| 2026-04-30 14:00 | 43.74473 | 10.30778 | 29093 ft | 270 kts | 341° |
| 2026-04-30 14:01 | 43.76312 | 10.30281 | 28463 ft | 268 kts | 342° |
| 2026-04-30 14:01 | 43.78134 | 10.29789 | 27843 ft | 266 kts | 343° |
| 2026-04-30 14:01 | 43.79943 | 10.29300 | 27217 ft | 264 kts | 343° |
| 2026-04-30 14:01 | 43.81736 | 10.28815 | 26614 ft | 262 kts | 344° |
| 2026-04-30 14:02 | 43.83467 | 10.28205 | 26030 ft | 258 kts | 338° |
| 2026-04-30 14:02 | 43.85110 | 10.27255 | 25453 ft | 255 kts | 331° |
| 2026-04-30 14:02 | 43.86692 | 10.26142 | 24885 ft | 254 kts | 332° |
| 2026-04-30 14:02 | 43.88275 | 10.25060 | 24333 ft | 253 kts | 333° |
| 2026-04-30 14:03 | 43.89858 | 10.23987 | 23784 ft | 253 kts | 333° |
| 2026-04-30 14:03 | 43.91435 | 10.22920 | 23169 ft | 252 kts | 333° |
| 2026-04-30 14:03 | 43.93002 | 10.21858 | 22583 ft | 250 kts | 333° |
| 2026-04-30 14:03 | 43.94558 | 10.20799 | 22012 ft | 248 kts | 333° |
| 2026-04-30 14:04 | 43.96108 | 10.19743 | 21406 ft | 248 kts | 333° |
| 2026-04-30 14:04 | 43.97653 | 10.18687 | 20863 ft | 247 kts | 333° |
| 2026-04-30 14:04 | 43.99187 | 10.17638 | 20332 ft | 245 kts | 333° |
| 2026-04-30 14:04 | 44.00716 | 10.16591 | 19814 ft | 244 kts | 334° |
| 2026-04-30 14:05 | 44.02237 | 10.15551 | 19306 ft | 243 kts | 333° |
| 2026-04-30 14:05 | 44.03729 | 10.14530 | 18816 ft | 242 kts | 333° |
| 2026-04-30 14:05 | 44.05230 | 10.13481 | 18290 ft | 241 kts | 330° |
| 2026-04-30 14:05 | 44.06539 | 10.12046 | 17722 ft | 240 kts | 313° |
| 2026-04-30 14:06 | 44.07476 | 10.10126 | 17211 ft | 240 kts | 304° |
| 2026-04-30 14:06 | 44.09311 | 10.06311 | 16277 ft | 233 kts | 307° |
| 2026-04-30 14:07 | 44.11036 | 10.02868 | 16187 ft | 211 kts | 307° |
| 2026-04-30 14:07 | 44.11900 | 10.01141 | 16186 ft | 227 kts | 307° |
| 2026-04-30 14:07 | 44.12866 | 9.99204 | 16205 ft | 262 kts | 307° |
| 2026-04-30 14:08 | 44.15130 | 9.94604 | 16232 ft | 291 kts | 306° |
| 2026-04-30 14:08 | 44.16238 | 9.92315 | 16241 ft | 273 kts | 306° |
| 2026-04-30 14:08 | 44.18150 | 9.88348 | 16241 ft | 223 kts | 306° |
| 2026-04-30 14:09 | 44.18981 | 9.86629 | 16213 ft | 205 kts | 307° |
| 2026-04-30 14:09 | 44.19747 | 9.85050 | 16189 ft | 189 kts | 307° |
| 2026-04-30 14:09 | 44.21487 | 9.82676 | 15921 ft | 173 kts | 336° |
| 2026-04-30 14:10 | 44.22584 | 9.82043 | 15736 ft | 168 kts | 340° |
| 2026-04-30 14:10 | 44.23695 | 9.81469 | 15560 ft | 185 kts | 340° |
| 2026-04-30 14:10 | 44.25058 | 9.80758 | 15397 ft | 245 kts | 340° |
| 2026-04-30 14:10 | 44.26786 | 9.79811 | 15360 ft | 271 kts | 339° |
| 2026-04-30 14:11 | 44.28496 | 9.78837 | 14797 ft | 263 kts | 338° |
| 2026-04-30 14:11 | 44.30186 | 9.77857 | 14100 ft | 263 kts | 338° |
| 2026-04-30 14:11 | 44.31855 | 9.76871 | 13428 ft | 257 kts | 336° |
| 2026-04-30 14:11 | 44.33497 | 9.75859 | 12700 ft | 256 kts | 336° |
| 2026-04-30 14:12 | 44.35109 | 9.74876 | 12036 ft | 252 kts | 337° |
| 2026-04-30 14:12 | 44.36716 | 9.73920 | 11384 ft | 250 kts | 339° |
| 2026-04-30 14:12 | 44.38319 | 9.72986 | 10734 ft | 247 kts | 338° |
| 2026-04-30 14:12 | 44.39377 | 9.72371 | 10353 ft | 248 kts | 338° |
| 2026-04-30 14:13 | 44.41526 | 9.71130 | 10277 ft | 257 kts | 339° |
| 2026-04-30 14:13 | 44.43199 | 9.70164 | 10259 ft | 263 kts | 339° |
| 2026-04-30 14:13 | 44.44908 | 9.69173 | 10258 ft | 267 kts | 339° |
| 2026-04-30 14:13 | 44.46632 | 9.68172 | 10236 ft | 270 kts | 338° |
| 2026-04-30 14:14 | 44.48378 | 9.67153 | 10238 ft | 273 kts | 339° |
| 2026-04-30 14:14 | 44.50138 | 9.66119 | 10230 ft | 276 kts | 338° |
| 2026-04-30 14:14 | 44.51914 | 9.65071 | 10220 ft | 277 kts | 339° |
| 2026-04-30 14:14 | 44.53696 | 9.64016 | 10220 ft | 278 kts | 339° |
| 2026-04-30 14:15 | 44.55482 | 9.62958 | 10246 ft | 278 kts | 339° |
| 2026-04-30 14:15 | 44.57262 | 9.61904 | 10256 ft | 277 kts | 339° |
| 2026-04-30 14:15 | 44.59040 | 9.60852 | 10270 ft | 277 kts | 338° |
| 2026-04-30 14:15 | 44.60817 | 9.59800 | 10242 ft | 277 kts | 338° |
| 2026-04-30 14:16 | 44.62005 | 9.59143 | 10239 ft | 277 kts | 341° |
| 2026-04-30 14:16 | 44.63825 | 9.58261 | 10244 ft | 276 kts | 343° |
| 2026-04-30 14:16 | 44.65644 | 9.57425 | 10240 ft | 275 kts | 343° |
| 2026-04-30 14:16 | 44.68053 | 9.56331 | 10242 ft | 274 kts | 342° |
| 2026-04-30 14:17 | 44.69279 | 9.55770 | 10236 ft | 273 kts | 342° |
| 2026-04-30 14:17 | 44.71064 | 9.54941 | 10225 ft | 274 kts | 342° |
| 2026-04-30 14:17 | 44.72870 | 9.54094 | 10219 ft | 273 kts | 342° |
| 2026-04-30 14:17 | 44.74668 | 9.53244 | 10214 ft | 272 kts | 343° |
| 2026-04-30 14:18 | 44.76457 | 9.52393 | 10247 ft | 271 kts | 342° |
| 2026-04-30 14:18 | 44.78244 | 9.51542 | 10242 ft | 271 kts | 342° |
| 2026-04-30 14:18 | 44.81811 | 9.49840 | 10238 ft | 266 kts | 341° |
| 2026-04-30 14:19 | 44.85190 | 9.48217 | 9046 ft | 256 kts | 342° |
| 2026-04-30 14:19 | 44.86862 | 9.47413 | 8440 ft | 254 kts | 342° |
| 2026-04-30 14:19 | 44.88535 | 9.46606 | 7805 ft | 254 kts | 343° |
| 2026-04-30 14:20 | 44.90215 | 9.45798 | 7133 ft | 256 kts | 343° |
| 2026-04-30 14:20 | 44.91900 | 9.44986 | 6596 ft | 255 kts | 345° |
| 2026-04-30 14:20 | 44.95201 | 9.43386 | 6002 ft | 237 kts | 345° |
| 2026-04-30 14:21 | 44.96707 | 9.42661 | 5976 ft | 219 kts | 345° |
| 2026-04-30 14:21 | 44.98158 | 9.41977 | 5508 ft | 221 kts | 345° |
| 2026-04-30 14:21 | 45.01065 | 9.40588 | 4985 ft | 226 kts | 346° |
| 2026-04-30 14:22 | 45.02602 | 9.39852 | 4973 ft | 240 kts | 342° |
| 2026-04-30 14:22 | 45.05939 | 9.38236 | 4989 ft | 265 kts | 344° |
| 2026-04-30 14:22 | 45.07711 | 9.37379 | 5010 ft | 271 kts | 343° |
| 2026-04-30 14:23 | 45.11253 | 9.35660 | 4539 ft | 264 kts | 343° |
| 2026-04-30 14:23 | 45.14661 | 9.34005 | 3597 ft | 256 kts | 345° |
| 2026-04-30 14:24 | 45.17884 | 9.32439 | 3118 ft | 227 kts | 344° |
| 2026-04-30 14:24 | 45.19316 | 9.31743 | 3132 ft | 209 kts | 347° |
| 2026-04-30 14:25 | 45.21923 | 9.30973 | 3121 ft | 178 kts | 355° |
| 2026-04-30 14:25 | 45.24544 | 9.30473 | 3127 ft | 204 kts | 357° |
| 2026-04-30 14:26 | 45.27354 | 9.29964 | 3178 ft | 195 kts | 357° |
| 2026-04-30 14:26 | 45.28720 | 9.29724 | 3144 ft | 200 kts | 358° |
| 2026-04-30 14:26 | 45.31622 | 9.29235 | 2738 ft | 215 kts | 358° |
| 2026-04-30 14:27 | 45.33063 | 9.29007 | 2462 ft | 208 kts | 357° |
| 2026-04-30 14:27 | 45.34426 | 9.28793 | 2188 ft | 182 kts | 359° |
| 2026-04-30 14:27 | 45.35653 | 9.28662 | 1915 ft | 173 kts | 2° |
| 2026-04-30 14:28 | 45.37938 | 9.28429 | 1510 ft | 154 kts | 1° |
| 2026-04-30 14:28 | 45.38998 | 9.28332 | 1279 ft | 150 kts | 1° |
| 2026-04-30 14:28 | 45.40028 | 9.28224 | 1091 ft | 148 kts | 359° |
| 2026-04-30 14:28 | 45.40991 | 9.28096 | 778 ft | 142 kts | 360° |
| 2026-04-30 14:29 | 45.43021 | 9.27859 | 505 ft | 145 kts | 359° |
| 2026-04-30 14:29 | 45.44644 | 9.27691 | 364 ft | 55 kts | 355° |
| 2026-04-30 14:30 | 45.45051 | 9.27295 | 354 ft | 24 kts | 300° |
| 2026-04-30 14:31 | 45.45162 | 9.26923 | 354 ft | 21 kts | 283° |
| 2026-04-30 14:31 | 45.45232 | 9.26514 | 356 ft | 24 kts | 294° |
| 2026-04-30 14:31 | 45.45328 | 9.26346 | 357 ft | 23 kts | 332° |
| 2026-04-30 14:32 | 45.45517 | 9.26191 | 354 ft | 12 kts | 254° |
| 2026-04-30 14:32 | 45.45501 | 9.26143 | 356 ft | 2 kts | 244° |
| 2026-04-30 14:32 | 45.45500 | 9.26142 | 356 ft | 0 kts | 243° |